createdAt,value
2023-02-24T00:00:32.080Z,100779.03
2023-02-24T00:03:06.373Z,100771.69
2023-02-24T00:05:35.891Z,100776.84
2023-02-24T00:08:03.701Z,100771.75
2023-02-24T00:10:32.782Z,100770.91
2023-02-24T00:13:00.517Z,100773.31
2023-02-24T00:15:28.176Z,100766.28
2023-02-24T00:17:55.835Z,100769.03
2023-02-24T00:20:25.059Z,100767.28
2023-02-24T00:22:52.740Z,100760.34
2023-02-24T00:25:20.407Z,100758.56
2023-02-24T00:27:48.173Z,100762.13
2023-02-24T00:30:17.015Z,100751.56
2023-02-24T00:32:45.562Z,100751.78
2023-02-24T00:35:13.317Z,100746.22
2023-02-24T00:37:42.417Z,100747.94
2023-02-24T00:40:12.139Z,100746.97
2023-02-24T00:42:42.701Z,100740.72
2023-02-24T00:45:11.032Z,100738.88
2023-02-24T00:47:39.968Z,100739.56
2023-02-24T00:50:08.417Z,100726.19
2023-02-24T00:52:36.948Z,100720.81
2023-02-24T00:55:14.001Z,100720.03
2023-02-24T00:57:42.394Z,100716.75
2023-02-24T01:00:16.609Z,100706.34
2023-02-24T01:02:46.174Z,100708.81
2023-02-24T01:05:15.049Z,100706.03
2023-02-24T01:07:42.969Z,100708.56
2023-02-24T01:10:13.328Z,100688.63
2023-02-24T01:12:49.607Z,100692.22
2023-02-24T01:15:18.814Z,100692.41
2023-02-24T01:17:46.912Z,100678.41
2023-02-24T01:20:18.950Z,100681.28
2023-02-24T01:22:48.417Z,100667.59
2023-02-24T01:25:18.962Z,100663.31
2023-02-24T01:27:46.686Z,100656.06
2023-02-24T01:30:16.229Z,100645.63
2023-02-24T01:32:44.518Z,100637.88
2023-02-24T01:35:14.311Z,100637.09
2023-02-24T01:37:43.193Z,100635.53
2023-02-24T01:40:18.615Z,100630.44
2023-02-24T01:42:49.354Z,100622.19
2023-02-24T01:45:25.125Z,100626.44
2023-02-24T01:47:53.429Z,100618.84
2023-02-24T01:50:26.039Z,100611.13
2023-02-24T01:52:56.523Z,100605.31
2023-02-24T01:55:28.980Z,100595.88
2023-02-24T01:58:00.519Z,100594.13
2023-02-24T02:00:45.298Z,100594.22
2023-02-24T02:03:19.559Z,100582.44
2023-02-24T02:05:48.591Z,100582.44
2023-02-24T02:08:17.607Z,100580.75
2023-02-24T02:10:46.345Z,100569.78
2023-02-24T02:13:20.955Z,100573.28
2023-02-24T02:15:57.917Z,100575.03
2023-02-24T02:18:31.027Z,100574.13
2023-02-24T02:21:19.811Z,100575.41
2023-02-24T02:24:10.197Z,100572.53
2023-02-24T02:27:02.112Z,100567.38
2023-02-24T02:29:46.608Z,100565.78
2023-02-24T02:32:55.652Z,100564.50
2023-02-24T02:35:27.924Z,100558.69
2023-02-24T02:37:59.118Z,100565.72
2023-02-24T02:40:30.601Z,100557.63
2023-02-24T02:43:00.863Z,100558.47
2023-02-24T02:45:31.191Z,100550.28
2023-02-24T02:48:02.380Z,100551.88
2023-02-24T02:50:35.992Z,100547.41
2023-02-24T02:53:06.161Z,100546.09
2023-02-24T02:55:39.173Z,100537.91
2023-02-24T02:58:10.449Z,100533.44
2023-02-24T03:00:43.446Z,100530.22
2023-02-24T03:03:13.915Z,100532.59
2023-02-24T03:05:46.933Z,100524.81
2023-02-24T03:08:18.217Z,100521.13
2023-02-24T03:10:51.162Z,100516.72
2023-02-24T03:13:22.303Z,100515.19
2023-02-24T03:15:51.649Z,100510.63
2023-02-24T03:18:21.544Z,100508.75
2023-02-24T03:20:52.943Z,100509.66
2023-02-24T03:23:25.832Z,100499.03
2023-02-24T03:25:58.668Z,100499.13
2023-02-24T03:28:34.020Z,100491.28
2023-02-24T03:31:04.860Z,100492.97
2023-02-24T03:33:36.561Z,100484.13
2023-02-24T03:36:07.097Z,100484.06
2023-02-24T03:38:37.877Z,100489.84
2023-02-24T03:41:11.281Z,100484.72
2023-02-24T03:43:42.467Z,100477.69
2023-02-24T03:46:10.198Z,100471.16
2023-02-24T03:48:42.243Z,100475.34
2023-02-24T03:51:16.015Z,100482.44
2023-02-24T03:53:55.204Z,100472.22
2023-02-24T03:56:30.215Z,100472.13
2023-02-24T03:59:12.765Z,100460.97
2023-02-24T04:01:46.540Z,100466.94
2023-02-24T04:04:20.038Z,100466.91
2023-02-24T04:06:56.237Z,100463.13
2023-02-24T04:09:29.736Z,100458.00
2023-02-24T04:12:09.181Z,100451.75
2023-02-24T04:14:44.192Z,100447.94
2023-02-24T04:17:19.240Z,100447.59
2023-02-24T04:19:49.344Z,100441.59
2023-02-24T04:22:24.583Z,100443.19
2023-02-24T04:24:55.430Z,100433.09
2023-02-24T04:27:24.169Z,100434.16
2023-02-24T04:29:55.117Z,100425.53
2023-02-24T04:32:25.879Z,100422.63
2023-02-24T04:34:54.255Z,100407.94
2023-02-24T04:37:23.855Z,100409.72
2023-02-24T04:39:51.916Z,100391.25
2023-02-24T04:42:22.338Z,100394.66
2023-02-24T04:44:50.104Z,100391.03
2023-02-24T04:47:17.755Z,100382.25
2023-02-24T04:49:45.469Z,100377.69
2023-02-24T04:52:15.451Z,100375.34
2023-02-24T04:54:44.964Z,100360.16
2023-02-24T04:57:12.899Z,100357.94
2023-02-24T04:59:40.705Z,100357.25
2023-02-24T05:02:08.388Z,100355.13
2023-02-24T05:04:38.968Z,100344.41
2023-02-24T05:07:06.788Z,100336.75
2023-02-24T05:09:34.468Z,100333.97
2023-02-24T05:12:05.185Z,100323.56
2023-02-24T05:14:32.870Z,100329.56
2023-02-24T05:17:00.719Z,100313.13
2023-02-24T05:19:45.958Z,100316.16
2023-02-24T05:22:14.452Z,100311.91
2023-02-24T05:24:42.239Z,100306.41
2023-02-24T05:27:11.363Z,100302.94
2023-02-24T05:29:40.499Z,100291.72
2023-02-24T05:32:08.438Z,100295.13
2023-02-24T05:34:39.065Z,100288.94
2023-02-24T05:37:10.908Z,100285.41
2023-02-24T05:39:38.963Z,100277.28
2023-02-24T05:42:06.989Z,100268.63
2023-02-24T05:44:36.904Z,100262.78
2023-02-24T05:47:05.633Z,100260.16
2023-02-24T05:49:34.844Z,100248.09
2023-02-24T05:52:08.813Z,100252.06
2023-02-24T05:54:39.236Z,100243.03
2023-02-24T05:57:09.215Z,100250.38
2023-02-24T05:59:39.271Z,100244.44
2023-02-24T06:02:09.544Z,100228.72
2023-02-24T06:04:46.433Z,100233.38
2023-02-24T06:07:19.188Z,100232.91
2023-02-24T06:09:50.332Z,100228.03
2023-02-24T06:12:18.984Z,100223.59
2023-02-24T06:14:48.355Z,100215.41
2023-02-24T06:17:17.057Z,100222.41
2023-02-24T06:19:44.958Z,100225.72
2023-02-24T06:22:14.623Z,100216.75
2023-02-24T06:24:44.358Z,100213.03
2023-02-24T06:27:17.661Z,100214.31
2023-02-24T06:29:46.274Z,100215.84
2023-02-24T06:32:15.537Z,100202.75
2023-02-24T06:34:43.392Z,100203.59
2023-02-24T06:37:13.861Z,100190.41
2023-02-24T06:39:41.769Z,100194.19
2023-02-24T06:42:10.471Z,100188.66
2023-02-24T06:44:39.317Z,100188.56
2023-02-24T06:47:09.368Z,100194.53
2023-02-24T06:49:38.394Z,100175.56
2023-02-24T06:52:06.920Z,100185.00
2023-02-24T06:54:36.196Z,100171.84
2023-02-24T06:57:04.924Z,100169.06
2023-02-24T06:59:32.777Z,100162.38
2023-02-24T07:02:01.994Z,100158.56
2023-02-24T07:04:30.052Z,100154.19
2023-02-24T07:07:03.182Z,100151.66
2023-02-24T07:09:32.292Z,100153.34
2023-02-24T07:12:02.652Z,100147.50
2023-02-24T07:14:31.659Z,100148.13
2023-02-24T07:17:00.350Z,100132.59
2023-02-24T07:19:29.792Z,100142.34
2023-02-24T07:22:01.933Z,100122.78
2023-02-24T07:24:35.931Z,100127.72
2023-02-24T07:27:05.104Z,100123.28
2023-02-24T07:29:34.412Z,100122.59
2023-02-24T07:32:05.464Z,100121.28
2023-02-24T07:34:34.228Z,100115.69
2023-02-24T07:37:07.990Z,100112.41
2023-02-24T07:39:37.587Z,100118.06
2023-02-24T07:42:06.207Z,100115.81
2023-02-24T07:44:34.136Z,100106.53
2023-02-24T07:47:07.730Z,100107.13
2023-02-24T07:49:36.183Z,100095.53
2023-02-24T07:52:08.166Z,100091.78
2023-02-24T07:54:36.243Z,100092.31
2023-02-24T07:57:04.895Z,100096.75
2023-02-24T07:59:34.283Z,100091.00
2023-02-24T08:02:04.922Z,100075.28
2023-02-24T08:04:33.886Z,100075.88
2023-02-24T08:07:03.366Z,100075.88
2023-02-24T08:10:09.018Z,100064.78
2023-02-24T08:12:42.739Z,100065.09
2023-02-24T08:15:18.011Z,100054.78
2023-02-24T08:17:47.332Z,100050.94
2023-02-24T08:20:25.975Z,100042.94
2023-02-24T08:22:55.047Z,100047.38
2023-02-24T08:25:25.756Z,100044.56
2023-02-24T08:28:07.407Z,100021.03
2023-02-24T08:30:39.862Z,100022.13
2023-02-24T08:33:09.404Z,100016.56
2023-02-24T08:35:39.165Z,100031.81
2023-02-24T08:38:09.852Z,100017.66
2023-02-24T08:40:50.227Z,100020.66
2023-02-24T08:43:31.171Z,100012.78
2023-02-24T08:46:03.717Z,100001.34
2023-02-24T08:48:37.295Z,99987.84
2023-02-24T08:51:09.678Z,100003.97
2023-02-24T08:53:40.559Z,99996.63
2023-02-24T08:56:11.876Z,99997.25
2023-02-24T08:58:46.835Z,99990.09
2023-02-24T09:01:24.163Z,99989.75
2023-02-24T09:03:54.485Z,99977.09
2023-02-24T09:06:26.609Z,99969.84
2023-02-24T09:09:14.793Z,99978.38
2023-02-24T09:11:45.041Z,99973.44
2023-02-24T09:14:26.729Z,99965.47
2023-02-24T09:17:07.148Z,99966.84
2023-02-24T09:20:02.416Z,99968.91
2023-02-24T09:22:55.766Z,99955.94
2023-02-24T09:25:25.729Z,99956.91
2023-02-24T09:28:07.727Z,99950.50
2023-02-24T09:30:37.774Z,99941.34
2023-02-24T09:33:17.842Z,99932.59
2023-02-24T09:35:51.550Z,99922.09
2023-02-24T09:38:20.963Z,99929.00
2023-02-24T09:40:50.394Z,99930.16
2023-02-24T09:43:24.056Z,99920.78
2023-02-24T09:46:02.717Z,99921.13
2023-02-24T09:48:43.701Z,99916.06
2023-02-24T09:51:21.450Z,99915.03
2023-02-24T09:53:53.605Z,99914.91
2023-02-24T09:56:30.405Z,99909.53
2023-02-24T09:59:10.398Z,99903.75
2023-02-24T10:01:44.583Z,99894.16
2023-02-24T10:04:30.804Z,99896.53
2023-02-24T10:07:03.033Z,99881.16
2023-02-24T10:09:35.437Z,99873.81
2023-02-24T10:12:11.617Z,99874.09
2023-02-24T10:14:51.170Z,99866.47
2023-02-24T10:17:30.697Z,99863.84
2023-02-24T10:20:01.108Z,99859.59
2023-02-24T10:22:39.797Z,99855.09
2023-02-24T10:25:23.387Z,99850.25
2023-02-24T10:28:01.822Z,99845.41
2023-02-24T10:30:41.727Z,99837.78
2023-02-24T10:33:20.613Z,99836.66
2023-02-24T10:35:50.137Z,99829.97
2023-02-24T10:38:17.929Z,99829.50
2023-02-24T10:40:48.184Z,99823.81
2023-02-24T10:43:30.085Z,99816.88
2023-02-24T10:46:07.209Z,99809.78
2023-02-24T10:48:41.846Z,99801.41
2023-02-24T10:51:19.641Z,99803.56
2023-02-24T10:53:53.366Z,99801.66
2023-02-24T10:56:27.690Z,99798.44
2023-02-24T10:59:41.293Z,99794.44
2023-02-24T11:02:29.829Z,99793.34
2023-02-24T11:05:26.932Z,99790.72
2023-02-24T11:08:08.058Z,99792.63
2023-02-24T11:10:53.001Z,99769.56
2023-02-24T11:13:39.251Z,99783.81
2023-02-24T11:16:27.185Z,99782.16
2023-02-24T11:18:56.960Z,99767.53
2023-02-24T11:21:26.220Z,99772.44
2023-02-24T11:23:56.523Z,99773.50
2023-02-24T11:26:27.414Z,99771.44
2023-02-24T11:29:17.496Z,99769.38
2023-02-24T11:32:06.614Z,99766.59
2023-02-24T11:34:42.717Z,99746.56
2023-02-24T11:37:27.020Z,99773.34
2023-02-24T11:40:00.419Z,99760.75
2023-02-24T11:42:31.995Z,99769.91
2023-02-24T11:45:02.720Z,99768.66
2023-02-24T11:47:36.741Z,99767.28
2023-02-24T11:50:17.564Z,99761.16
2023-02-24T11:52:47.681Z,99749.69
2023-02-24T11:55:28.409Z,99744.66
2023-02-24T11:57:59.196Z,99732.56
2023-02-24T12:00:29.074Z,99730.19
2023-02-24T12:03:03.838Z,99724.06
2023-02-24T12:05:36.992Z,99718.72
2023-02-24T12:08:08.269Z,99703.66
2023-02-24T12:10:37.636Z,99690.13
2023-02-24T12:13:09.606Z,99683.94
2023-02-24T12:15:41.018Z,99685.53
2023-02-24T12:18:14.771Z,99693.88
2023-02-24T12:20:48.311Z,99692.88
2023-02-24T12:23:18.434Z,99689.59
2023-02-24T12:25:56.440Z,99687.50
2023-02-24T12:28:34.028Z,99683.63
2023-02-24T12:31:10.010Z,99672.28
2023-02-24T12:33:49.381Z,99670.81
2023-02-24T12:36:29.242Z,99664.63
2023-02-24T12:39:07.022Z,99659.28
2023-02-24T12:41:44.587Z,99660.88
2023-02-24T12:44:20.994Z,99642.06
2023-02-24T12:46:54.294Z,99646.84
2023-02-24T12:49:33.499Z,99658.97
2023-02-24T12:52:10.158Z,99639.13
2023-02-24T12:54:43.262Z,99641.78
2023-02-24T12:57:14.923Z,99631.22
2023-02-24T12:59:43.669Z,99630.31
2023-02-24T13:02:18.574Z,99619.59
2023-02-24T13:04:54.063Z,99609.66
2023-02-24T13:07:43.021Z,99601.97
2023-02-24T13:10:20.311Z,99608.94
2023-02-24T13:12:51.396Z,99604.56
2023-02-24T13:15:22.235Z,99595.44
2023-02-24T13:17:52.362Z,99590.16
2023-02-24T13:20:29.295Z,99590.38
2023-02-24T13:22:58.933Z,99596.03
2023-02-24T13:25:32.181Z,99607.88
2023-02-24T13:28:02.286Z,99619.06
2023-02-24T13:30:38.094Z,99574.53
2023-02-24T13:33:19.476Z,99584.81
2023-02-24T13:35:48.164Z,99600.53
2023-02-24T13:38:36.933Z,99602.41
2023-02-24T13:41:09.811Z,99601.53
2023-02-24T13:43:37.519Z,99598.00
2023-02-24T13:46:18.259Z,99594.31
2023-02-24T13:49:04.769Z,99599.25
2023-02-24T13:51:50.386Z,99591.13
2023-02-24T13:54:42.774Z,99595.03
2023-02-24T13:57:32.843Z,99595.00
2023-02-24T14:00:11.189Z,99594.97
2023-02-24T14:02:42.956Z,99588.31
2023-02-24T14:05:14.489Z,99587.88
2023-02-24T14:07:42.237Z,99575.22
2023-02-24T14:10:19.283Z,99587.97
2023-02-24T14:12:47.876Z,99574.94
2023-02-24T14:15:20.857Z,99560.63
2023-02-24T14:17:56.704Z,99554.25
2023-02-24T14:20:25.712Z,99561.75
2023-02-24T14:22:55.064Z,99570.00
2023-02-24T14:25:24.768Z,99565.34
2023-02-24T14:27:53.721Z,99567.31
2023-02-24T14:30:27.552Z,99561.16
2023-02-24T14:32:56.094Z,99571.28
2023-02-24T14:35:35.085Z,99555.19
2023-02-24T14:38:03.018Z,99562.06
2023-02-24T14:40:32.973Z,99567.50
2023-02-24T14:43:00.706Z,99557.91
2023-02-24T14:45:30.762Z,99543.41
2023-02-24T14:47:58.494Z,99549.47
2023-02-24T14:50:29.212Z,99561.56
2023-02-24T14:52:58.611Z,99561.78
2023-02-24T14:55:28.524Z,99562.88
2023-02-24T14:58:02.264Z,99551.47
2023-02-24T15:00:33.222Z,99554.19
2023-02-24T15:03:06.357Z,99532.78
2023-02-24T15:05:34.089Z,99530.19
2023-02-24T15:08:03.851Z,99520.84
2023-02-24T15:10:32.373Z,99543.88
2023-02-24T15:13:08.958Z,99547.16
2023-02-24T15:15:38.502Z,99523.16
2023-02-24T15:18:11.959Z,99533.41
2023-02-24T15:20:40.982Z,99553.44
2023-02-24T15:23:26.033Z,99540.75
2023-02-24T15:25:53.922Z,99531.28
2023-02-24T15:28:27.630Z,99518.84
2023-02-24T15:31:00.953Z,99522.66
2023-02-24T15:33:32.467Z,99517.34
2023-02-24T15:36:01.498Z,99524.38
2023-02-24T15:38:32.780Z,99519.22
2023-02-24T15:41:02.463Z,99556.72
2023-02-24T15:43:37.119Z,99582.88
2023-02-24T15:46:23.339Z,99581.75
2023-02-24T15:48:54.158Z,99577.19
2023-02-24T15:51:28.736Z,99563.47
2023-02-24T15:53:56.468Z,99571.00
2023-02-24T15:56:24.445Z,99566.72
2023-02-24T15:58:53.715Z,99557.19
2023-02-24T16:01:21.433Z,99553.75
2023-02-24T16:03:49.670Z,99563.94
2023-02-24T16:06:20.208Z,99571.03
2023-02-24T16:08:49.139Z,99577.00
2023-02-24T16:11:18.536Z,99572.16
2023-02-24T16:13:49.751Z,99585.06
2023-02-24T16:16:20.090Z,99579.31
2023-02-24T16:18:48.041Z,99586.50
2023-02-24T16:21:15.797Z,99579.31
2023-02-24T16:23:44.063Z,99577.53
2023-02-24T16:26:16.747Z,99578.72
2023-02-24T16:28:44.968Z,99575.59
2023-02-24T16:31:12.896Z,99583.94
2023-02-24T16:33:54.180Z,99572.56
2023-02-24T16:36:23.988Z,99573.47
2023-02-24T16:38:52.045Z,99578.38
2023-02-24T16:41:20.197Z,99582.25
2023-02-24T16:43:48.125Z,99595.75
2023-02-24T16:46:18.241Z,99583.97
2023-02-24T16:48:48.456Z,99583.13
2023-02-24T16:51:16.240Z,99586.66
2023-02-24T16:53:44.235Z,99580.31
2023-02-24T16:56:15.090Z,99591.16
2023-02-24T16:58:42.813Z,99591.75
2023-02-24T17:01:17.419Z,99607.16
2023-02-24T17:03:48.991Z,99609.28
2023-02-24T17:06:16.736Z,99609.72
2023-02-24T17:08:46.073Z,99603.28
2023-02-24T17:11:14.947Z,99610.91
2023-02-24T17:13:43.573Z,99603.13
2023-02-24T17:16:11.351Z,99612.09
2023-02-24T17:18:39.052Z,99611.56
2023-02-24T17:21:08.312Z,99610.59
2023-02-24T17:23:36.037Z,99612.31
2023-02-24T17:26:03.782Z,99612.16
2023-02-24T17:28:31.590Z,99614.34
2023-02-24T17:30:59.390Z,99618.78
2023-02-24T17:33:27.260Z,99618.19
2023-02-24T17:35:54.932Z,99622.00
2023-02-24T17:38:24.979Z,99629.09
2023-02-24T17:40:52.987Z,99631.38
2023-02-24T17:43:20.690Z,99633.59
2023-02-24T17:45:48.451Z,99641.53
2023-02-24T17:48:16.602Z,99640.84
2023-02-24T17:50:45.505Z,99641.69
2023-02-24T17:53:13.341Z,99642.00
2023-02-24T17:56:01.081Z,99637.97
2023-02-24T17:58:29.866Z,99640.38
2023-02-24T18:00:57.800Z,99647.06
2023-02-24T18:03:25.641Z,99649.97
2023-02-24T18:05:59.150Z,99651.03
2023-02-24T18:08:26.853Z,99658.50
2023-02-24T18:10:55.929Z,99640.31
2023-02-24T18:13:23.698Z,99643.19
2023-02-24T18:15:51.377Z,99655.78
2023-02-24T18:18:19.065Z,99644.50
2023-02-24T18:20:47.541Z,99647.31
2023-02-24T18:23:15.304Z,99646.00
2023-02-24T18:25:42.959Z,99666.22
2023-02-24T18:28:12.075Z,99656.06
2023-02-24T18:30:40.127Z,99650.00
2023-02-24T18:33:08.078Z,99667.63
2023-02-24T18:35:38.367Z,99666.50
2023-02-24T18:38:06.613Z,99665.09
2023-02-24T18:40:35.048Z,99664.09
2023-02-24T18:43:02.727Z,99664.97
2023-02-24T18:45:32.376Z,99668.13
2023-02-24T18:48:04.885Z,99670.03
2023-02-24T18:50:33.815Z,99665.38
2023-02-24T18:53:01.459Z,99656.22
2023-02-24T18:55:29.907Z,99667.50
2023-02-24T18:57:57.559Z,99662.56
2023-02-24T19:00:25.296Z,99668.06
2023-02-24T19:02:54.515Z,99669.69
2023-02-24T19:05:22.288Z,99672.28
2023-02-24T19:07:49.940Z,99666.34
2023-02-24T19:10:18.433Z,99664.53
2023-02-24T19:12:47.117Z,99665.66
2023-02-24T19:15:15.045Z,99675.00
2023-02-24T19:17:42.803Z,99664.94
2023-02-24T19:20:14.822Z,99665.22
2023-02-24T19:22:42.888Z,99675.03
2023-02-24T19:25:10.591Z,99679.91
2023-02-24T19:27:38.314Z,99682.84
2023-02-24T19:30:07.186Z,99674.25
2023-02-24T19:32:35.057Z,99674.81
2023-02-24T19:35:02.780Z,99669.59
2023-02-24T19:37:32.847Z,99669.59
2023-02-24T19:40:00.527Z,99662.91
2023-02-24T19:42:28.494Z,99660.56
2023-02-24T19:44:56.579Z,99661.50
2023-02-24T19:47:24.296Z,99658.59
2023-02-24T19:49:52.029Z,99656.22
2023-02-24T19:52:19.728Z,99666.34
2023-02-24T19:54:48.757Z,99653.28
2023-02-24T19:57:16.456Z,99669.41
2023-02-24T19:59:44.743Z,99679.59
2023-02-24T20:02:12.525Z,99675.94
2023-02-24T20:04:40.367Z,99674.91
2023-02-24T20:07:08.103Z,99676.53
2023-02-24T20:09:35.764Z,99679.47
2023-02-24T20:12:05.100Z,99668.25
2023-02-24T20:14:32.812Z,99677.50
2023-02-24T20:17:00.564Z,99687.50
2023-02-24T20:19:28.303Z,99675.59
2023-02-24T20:21:55.929Z,99693.50
2023-02-24T20:24:23.681Z,99689.28
2023-02-24T20:26:51.388Z,99691.03
2023-02-24T20:29:21.850Z,99701.13
2023-02-24T20:31:49.874Z,99709.03
2023-02-24T20:34:17.861Z,99700.78
2023-02-24T20:36:45.650Z,99701.75
2023-02-24T20:39:13.429Z,99691.88
2023-02-24T20:41:41.606Z,99699.91
2023-02-24T20:44:09.362Z,99694.41
2023-02-24T20:46:38.604Z,99703.25
2023-02-24T20:49:07.973Z,99716.97
2023-02-24T20:51:37.962Z,99713.75
2023-02-24T20:54:06.363Z,99720.91
2023-02-24T20:56:36.520Z,99727.28
2023-02-24T20:59:06.160Z,99709.22
2023-02-24T21:01:35.386Z,99702.88
2023-02-24T21:04:04.664Z,99695.25
2023-02-24T21:06:32.559Z,99700.00
2023-02-24T21:09:00.240Z,99712.97
2023-02-24T21:11:29.771Z,99705.41
2023-02-24T21:13:58.030Z,99704.91
2023-02-24T21:16:26.820Z,99714.34
2023-02-24T21:18:56.259Z,99719.09
2023-02-24T21:21:25.321Z,99734.09
2023-02-24T21:23:53.105Z,99723.03
2023-02-24T21:26:21.381Z,99734.22
2023-02-24T21:28:49.537Z,99701.25
2023-02-24T21:31:20.295Z,99715.34
2023-02-24T21:33:51.440Z,99715.28
2023-02-24T21:36:21.088Z,99708.88
2023-02-24T21:38:50.635Z,99709.44
2023-02-24T21:41:20.299Z,99715.78
2023-02-24T21:43:48.437Z,99713.75
2023-02-24T21:46:18.076Z,99725.28
2023-02-24T21:48:46.145Z,99727.53
2023-02-24T21:51:14.651Z,99730.97
2023-02-24T21:53:44.416Z,99728.88
2023-02-24T21:56:17.274Z,99726.56
2023-02-24T21:58:47.770Z,99718.53
2023-02-24T22:01:17.183Z,99731.09
2023-02-24T22:03:45.094Z,99731.28
2023-02-24T22:06:14.838Z,99730.31
2023-02-24T22:08:45.250Z,99722.09
2023-02-24T22:11:15.888Z,99707.56
2023-02-24T22:13:44.826Z,99714.28
2023-02-24T22:16:14.910Z,99711.22
2023-02-24T22:18:42.668Z,99714.16
2023-02-24T22:21:11.815Z,99715.06
2023-02-24T22:23:39.994Z,99717.47
2023-02-24T22:26:09.652Z,99710.91
2023-02-24T22:28:41.111Z,99723.25
2023-02-24T22:31:10.733Z,99723.59
2023-02-24T22:33:40.712Z,99725.44
2023-02-24T22:36:10.000Z,99727.41
2023-02-24T22:38:38.781Z,99725.50
2023-02-24T22:41:08.152Z,99733.13
2023-02-24T22:43:36.170Z,99733.63
2023-02-24T22:46:07.114Z,99749.84
2023-02-24T22:48:36.159Z,99745.41
2023-02-24T22:51:05.404Z,99740.31
2023-02-24T22:53:38.495Z,99735.25
2023-02-24T22:56:06.987Z,99740.88
2023-02-24T22:58:34.728Z,99741.06
2023-02-24T23:01:02.552Z,99740.94
2023-02-24T23:03:31.668Z,99740.72
2023-02-24T23:06:00.657Z,99734.94
2023-02-24T23:08:29.267Z,99733.66
2023-02-24T23:10:57.917Z,99742.38
2023-02-24T23:13:25.608Z,99753.84
2023-02-24T23:15:53.327Z,99744.03
2023-02-24T23:18:20.989Z,99769.44
2023-02-24T23:20:59.474Z,99758.72
2023-02-24T23:23:27.395Z,99761.97
2023-02-24T23:25:55.116Z,99760.41
2023-02-24T23:28:22.844Z,99768.75
2023-02-24T23:30:50.570Z,99772.00
2023-02-24T23:33:18.834Z,99775.84
2023-02-24T23:35:46.712Z,99773.81
2023-02-24T23:38:16.255Z,99774.25
2023-02-24T23:40:49.921Z,99778.78
2023-02-24T23:43:18.437Z,99775.03
2023-02-24T23:45:46.501Z,99765.88
2023-02-24T23:48:15.117Z,99770.94
2023-02-24T23:50:45.858Z,99776.31
2023-02-24T23:53:14.880Z,99765.63
2023-02-24T23:55:42.612Z,99770.28
2023-02-24T23:58:10.304Z,99774.66
